createdAt,value
2016-05-11T00:00:06.853Z,19
2016-05-11T00:00:16.806Z,19
2016-05-11T00:00:26.668Z,18.9
2016-05-11T00:00:36.387Z,18.9
2016-05-11T00:00:46.387Z,18.9
2016-05-11T00:00:56.371Z,18.9
2016-05-11T00:01:06.387Z,18.9
2016-05-11T00:01:16.371Z,18.9
2016-05-11T00:01:26.358Z,18.9
2016-05-11T00:01:36.342Z,18.9
2016-05-11T00:01:46.342Z,18.9
2016-05-11T00:01:56.327Z,18.9
2016-05-11T00:02:06.202Z,18.9
2016-05-11T00:02:16.342Z,18.9
2016-05-11T00:02:26.330Z,18.9
2016-05-11T00:02:36.345Z,18.9
2016-05-11T00:02:46.330Z,18.9
2016-05-11T00:02:56.314Z,18.9
2016-05-11T00:03:06.314Z,18.9
2016-05-11T00:03:16.298Z,18.9
2016-05-11T00:03:26.161Z,18.9
2016-05-11T00:03:35.989Z,18.9
2016-05-11T00:03:46.176Z,18.9
2016-05-11T00:03:56.145Z,18.9
2016-05-11T00:04:06.286Z,18.9
2016-05-11T00:04:16.286Z,18.9
2016-05-11T00:04:26.288Z,18.9
2016-05-11T00:04:36.288Z,18.9
2016-05-11T00:04:46.303Z,18.9
2016-05-11T00:04:56.272Z,18.9
2016-05-11T00:05:06.256Z,18.9
2016-05-11T00:05:16.100Z,18.9
2016-05-11T00:05:26.103Z,18.9
2016-05-11T00:05:35.947Z,18.9
2016-05-11T00:05:46.119Z,18.9
2016-05-11T00:05:56.259Z,18.9
2016-05-11T00:06:06.244Z,18.9
2016-05-11T00:06:16.228Z,18.9
2016-05-11T00:06:26.091Z,18.9
2016-05-11T00:06:36.231Z,18.9
2016-05-11T00:06:46.075Z,18.9
2016-05-11T00:06:56.059Z,18.9
2016-05-11T00:07:06.216Z,18.9
2016-05-11T00:07:16.200Z,18.9
2016-05-11T00:07:26.218Z,18.9
2016-05-11T00:07:36.061Z,18.9
2016-05-11T00:07:46.202Z,18.8
2016-05-11T00:07:56.093Z,18.8
2016-05-11T00:08:06.030Z,18.8
2016-05-11T00:08:16.186Z,18.8
2016-05-11T00:08:26.190Z,18.8
2016-05-11T00:08:36.175Z,18.8
2016-05-11T00:08:45.909Z,18.9
2016-05-11T00:08:56.175Z,18.8
2016-05-11T00:09:06.159Z,18.8
2016-05-11T00:09:16.159Z,18.8
2016-05-11T00:09:26.161Z,18.8
2016-05-11T00:09:36.145Z,18.8
2016-05-11T00:09:46.177Z,18.8
2016-05-11T00:09:56.145Z,18.8
2016-05-11T00:10:06.145Z,18.8
2016-05-11T00:10:15.989Z,18.8
2016-05-11T00:10:26.132Z,18.8
2016-05-11T00:10:35.976Z,18.8
2016-05-11T00:10:46.507Z,18.8
2016-05-11T00:10:56.116Z,18.8
2016-05-11T00:11:06.132Z,18.8
2016-05-11T00:11:16.116Z,18.8
2016-05-11T00:11:26.151Z,18.8
2016-05-11T00:11:35.948Z,18.8
2016-05-11T00:11:46.105Z,18.8
2016-05-11T00:11:55.933Z,18.8
2016-05-11T00:12:06.089Z,18.8
2016-05-11T00:12:16.089Z,18.8
2016-05-11T00:12:25.919Z,18.8
2016-05-11T00:12:35.935Z,18.8
2016-05-11T00:12:46.075Z,18.8
2016-05-11T00:12:56.075Z,18.8
2016-05-11T00:13:06.060Z,18.8
2016-05-11T00:13:16.044Z,18.8
2016-05-11T00:13:26.062Z,18.8
2016-05-11T00:13:36.046Z,18.8
2016-05-11T00:13:46.046Z,18.8
2016-05-11T00:13:56.046Z,18.8
2016-05-11T00:14:06.030Z,18.8
2016-05-11T00:14:16.030Z,18.8
2016-05-11T00:14:26.034Z,18.8
2016-05-11T00:14:36.034Z,18.8
2016-05-11T00:14:46.097Z,18.8
2016-05-11T00:14:56.019Z,18.8
2016-05-11T00:15:05.909Z,18.8
2016-05-11T00:15:16.019Z,18.8
2016-05-11T00:15:26.115Z,18.8
2016-05-11T00:15:35.849Z,18.8
2016-05-11T00:15:45.833Z,18.8
2016-05-11T00:15:56.005Z,18.8
2016-05-11T00:16:05.990Z,18.8
2016-05-11T00:16:15.974Z,18.8
2016-05-11T00:16:25.993Z,18.8
2016-05-11T00:16:35.961Z,18.8
2016-05-11T00:16:45.805Z,18.8
2016-05-11T00:16:55.961Z,18.8
2016-05-11T00:17:05.836Z,18.7
2016-05-11T00:17:15.805Z,18.8
2016-05-11T00:17:25.807Z,18.7
2016-05-11T00:17:35.948Z,18.7
2016-05-11T00:17:45.807Z,18.7
2016-05-11T00:17:55.776Z,18.7
2016-05-11T00:18:05.776Z,18.7
2016-05-11T00:18:15.948Z,18.7
2016-05-11T00:18:25.935Z,18.7
2016-05-11T00:18:35.779Z,18.7
2016-05-11T00:18:45.919Z,18.7
2016-05-11T00:18:55.763Z,18.7
2016-05-11T00:19:05.763Z,18.7
2016-05-11T00:19:15.904Z,18.7
2016-05-11T00:19:25.751Z,18.7
2016-05-11T00:19:35.891Z,18.7
2016-05-11T00:19:45.891Z,18.7
2016-05-11T00:19:55.891Z,18.7
2016-05-11T00:20:05.891Z,18.7
2016-05-11T00:20:15.907Z,18.7
2016-05-11T00:20:25.878Z,18.7
2016-05-11T00:20:35.862Z,18.7
2016-05-11T00:20:45.721Z,18.7
2016-05-11T00:20:55.862Z,18.7
2016-05-11T00:21:05.878Z,18.7
2016-05-11T00:21:15.862Z,18.7
2016-05-11T00:21:25.849Z,18.7
2016-05-11T00:21:35.849Z,18.7
2016-05-11T00:21:45.677Z,18.7
2016-05-11T00:21:55.834Z,18.7
2016-05-11T00:22:05.834Z,18.7
2016-05-11T00:22:15.818Z,18.7
2016-05-11T00:22:25.837Z,18.7
2016-05-11T00:22:35.821Z,18.7
2016-05-11T00:22:45.821Z,18.7
2016-05-11T00:22:55.821Z,18.7
2016-05-11T00:23:05.821Z,18.7
2016-05-11T00:23:15.805Z,18.7
2016-05-11T00:23:25.792Z,18.7
2016-05-11T00:23:35.807Z,18.7
2016-05-11T00:23:45.792Z,18.7
2016-05-11T00:23:55.792Z,18.7
2016-05-11T00:24:05.636Z,18.7
2016-05-11T00:24:15.776Z,18.7
2016-05-11T00:24:25.608Z,18.7
2016-05-11T00:24:35.780Z,18.7
2016-05-11T00:24:45.765Z,18.7
2016-05-11T00:24:55.765Z,18.7
2016-05-11T00:25:05.749Z,18.7
2016-05-11T00:25:15.765Z,18.7
2016-05-11T00:25:25.751Z,18.7
2016-05-11T00:25:35.751Z,18.7
2016-05-11T00:25:45.579Z,18.7
2016-05-11T00:25:55.720Z,18.7
2016-05-11T00:26:05.720Z,18.7
2016-05-11T00:26:15.735Z,18.7
2016-05-11T00:26:25.723Z,18.6
2016-05-11T00:26:35.723Z,18.7
2016-05-11T00:26:45.738Z,18.7
2016-05-11T00:26:55.707Z,18.7
2016-05-11T00:27:05.551Z,18.6
2016-05-11T00:27:15.691Z,18.7
2016-05-11T00:27:25.694Z,18.7
2016-05-11T00:27:35.538Z,18.7
2016-05-11T00:27:45.523Z,18.6
2016-05-11T00:27:55.382Z,18.6
2016-05-11T00:28:05.679Z,18.7
2016-05-11T00:28:15.663Z,18.6
2016-05-11T00:28:25.368Z,18.6
2016-05-11T00:28:35.368Z,18.6
2016-05-11T00:28:45.509Z,18.6
2016-05-11T00:28:55.665Z,18.6
2016-05-11T00:29:05.665Z,18.6
2016-05-11T00:29:15.665Z,18.6
2016-05-11T00:29:25.653Z,18.6
2016-05-11T00:29:35.653Z,18.6
2016-05-11T00:29:45.637Z,18.6
2016-05-11T00:29:55.481Z,18.6
2016-05-11T00:30:05.449Z,18.6
2016-05-11T00:30:15.496Z,18.6
2016-05-11T00:30:25.795Z,18.6
2016-05-11T00:30:35.623Z,18.6
2016-05-11T00:30:45.623Z,18.6
2016-05-11T00:30:55.639Z,18.6
2016-05-11T00:31:05.451Z,18.6
2016-05-11T00:31:15.623Z,18.6
2016-05-11T00:31:25.595Z,18.6
2016-05-11T00:31:35.595Z,18.6
2016-05-11T00:31:45.595Z,18.6
2016-05-11T00:31:55.579Z,18.6
2016-05-11T00:32:05.595Z,18.6
2016-05-11T00:32:15.595Z,18.6
2016-05-11T00:32:25.582Z,18.6
2016-05-11T00:32:35.567Z,18.6
2016-05-11T00:32:45.567Z,18.6
2016-05-11T00:32:55.567Z,18.6
2016-05-11T00:33:05.551Z,18.6
2016-05-11T00:33:15.567Z,18.6
2016-05-11T00:33:25.398Z,18.6
2016-05-11T00:33:35.539Z,18.6
2016-05-11T00:33:45.539Z,18.6
2016-05-11T00:33:55.539Z,18.6
2016-05-11T00:34:05.367Z,18.6
2016-05-11T00:34:15.523Z,18.6
2016-05-11T00:34:25.525Z,18.6
2016-05-11T00:34:35.525Z,18.6
2016-05-11T00:34:45.353Z,18.6
2016-05-11T00:34:55.494Z,18.6
2016-05-11T00:35:05.509Z,18.6
2016-05-11T00:35:15.494Z,18.6
2016-05-11T00:35:25.497Z,18.6
2016-05-11T00:35:35.340Z,18.6
2016-05-11T00:35:45.497Z,18.6
2016-05-11T00:35:55.169Z,18.6
2016-05-11T00:36:05.309Z,18.6
2016-05-11T00:36:15.465Z,18.6
2016-05-11T00:36:25.297Z,18.6
2016-05-11T00:36:35.500Z,18.6
2016-05-11T00:36:45.468Z,18.6
2016-05-11T00:36:55.484Z,18.6
2016-05-11T00:37:05.312Z,18.6
2016-05-11T00:37:15.437Z,18.6
2016-05-11T00:37:25.439Z,18.6
2016-05-11T00:37:35.439Z,18.6
2016-05-11T00:37:45.424Z,18.6
2016-05-11T00:37:55.283Z,18.6
2016-05-11T00:38:05.267Z,18.6
2016-05-11T00:38:15.439Z,18.6
2016-05-11T00:38:25.411Z,18.6
2016-05-11T00:38:35.395Z,18.6
2016-05-11T00:38:45.411Z,18.6
2016-05-11T00:38:55.411Z,18.6
2016-05-11T00:39:05.380Z,18.6
2016-05-11T00:39:15.239Z,18.6
2016-05-11T00:39:25.414Z,18.6
2016-05-11T00:39:35.383Z,18.6
2016-05-11T00:39:45.211Z,18.6
2016-05-11T00:39:55.383Z,18.6
2016-05-11T00:40:05.367Z,18.6
2016-05-11T00:40:15.211Z,18.6
2016-05-11T00:40:25.369Z,18.6
2016-05-11T00:40:35.353Z,18.6
2016-05-11T00:40:45.369Z,18.6
2016-05-11T00:40:55.369Z,18.6
2016-05-11T00:41:05.338Z,18.6
2016-05-11T00:41:15.353Z,18.6
2016-05-11T00:41:25.341Z,18.6
2016-05-11T00:41:35.341Z,18.6
2016-05-11T00:41:45.341Z,18.5
2016-05-11T00:41:55.325Z,18.5
2016-05-11T00:42:05.341Z,18.5
2016-05-11T00:42:15.325Z,18.5
2016-05-11T00:42:25.155Z,18.5
2016-05-11T00:42:35.171Z,18.6
2016-05-11T00:42:45.296Z,18.5
2016-05-11T00:42:55.155Z,18.5
2016-05-11T00:43:05.296Z,18.5
2016-05-11T00:43:15.140Z,18.5
2016-05-11T00:43:25.300Z,18.5
2016-05-11T00:43:35.144Z,18.5
2016-05-11T00:43:45.300Z,18.5
2016-05-11T00:43:55.112Z,18.5
2016-05-11T00:44:05.128Z,18.5
2016-05-11T00:44:15.269Z,18.5
2016-05-11T00:44:25.271Z,18.5
2016-05-11T00:44:35.255Z,18.5
2016-05-11T00:44:45.193Z,18.5
2016-05-11T00:44:55.755Z,18.5
2016-05-11T00:45:05.630Z,18.5
2016-05-11T00:45:15.271Z,18.5
2016-05-11T00:45:25.102Z,18.5
2016-05-11T00:45:35.586Z,18.5
2016-05-11T00:45:45.227Z,18.5
2016-05-11T00:45:55.227Z,18.5
2016-05-11T00:46:05.242Z,18.5
2016-05-11T00:46:15.242Z,18.5
2016-05-11T00:46:25.230Z,18.5
2016-05-11T00:46:35.214Z,18.5
2016-05-11T00:46:45.199Z,18.5
2016-05-11T00:46:55.199Z,18.5
2016-05-11T00:47:05.042Z,18.5
2016-05-11T00:47:15.214Z,18.5
2016-05-11T00:47:25.044Z,18.5
2016-05-11T00:47:35.185Z,18.5
2016-05-11T00:47:45.185Z,18.5
2016-05-11T00:47:55.169Z,18.5
2016-05-11T00:48:05.169Z,18.5
2016-05-11T00:48:15.169Z,18.5
2016-05-11T00:48:25.000Z,18.5
2016-05-11T00:48:35.172Z,18.5
2016-05-11T00:48:45.000Z,18.5
2016-05-11T00:48:55.188Z,18.5
2016-05-11T00:49:05.141Z,18.5
2016-05-11T00:49:15.125Z,18.5
2016-05-11T00:49:24.816Z,18.5
2016-05-11T00:49:35.128Z,18.5
2016-05-11T00:49:45.128Z,18.5
2016-05-11T00:49:54.972Z,18.5
2016-05-11T00:50:05.113Z,18.5
2016-05-11T00:50:15.113Z,18.4
2016-05-11T00:50:25.099Z,18.5
2016-05-11T00:50:35.130Z,18.5
2016-05-11T00:50:44.943Z,18.5
2016-05-11T00:50:55.099Z,18.4
2016-05-11T00:51:04.943Z,18.4
2016-05-11T00:51:15.084Z,18.5
2016-05-11T00:51:25.102Z,18.5
2016-05-11T00:51:35.087Z,18.4
2016-05-11T00:51:45.071Z,18.4
2016-05-11T00:51:55.071Z,18.4
2016-05-11T00:52:05.071Z,18.5
2016-05-11T00:52:15.055Z,18.4
2016-05-11T00:52:25.057Z,18.4
2016-05-11T00:52:35.057Z,18.4
2016-05-11T00:52:45.057Z,18.4
2016-05-11T00:52:55.042Z,18.4
2016-05-11T00:53:05.042Z,18.4
2016-05-11T00:53:14.729Z,18.4
2016-05-11T00:53:24.888Z,18.4
2016-05-11T00:53:34.888Z,18.4
2016-05-11T00:53:45.029Z,18.4
2016-05-11T00:53:55.029Z,18.4
2016-05-11T00:54:05.013Z,18.4
2016-05-11T00:54:15.013Z,18.4
2016-05-11T00:54:24.857Z,18.4
2016-05-11T00:54:35.001Z,18.4
2016-05-11T00:54:45.001Z,18.4
2016-05-11T00:54:54.985Z,18.4
2016-05-11T00:55:04.985Z,18.4
2016-05-11T00:55:14.845Z,18.4
2016-05-11T00:55:24.973Z,18.4
2016-05-11T00:55:34.973Z,18.4
2016-05-11T00:55:44.832Z,18.4
2016-05-11T00:55:54.973Z,18.4
2016-05-11T00:56:04.973Z,18.4
2016-05-11T00:56:14.801Z,18.4
2016-05-11T00:56:24.943Z,18.4
2016-05-11T00:56:34.959Z,18.4
2016-05-11T00:56:44.943Z,18.4
2016-05-11T00:56:54.943Z,18.4
2016-05-11T00:57:04.928Z,18.4
2016-05-11T00:57:14.943Z,18.4
2016-05-11T00:57:24.771Z,18.4
2016-05-11T00:57:34.774Z,18.4
2016-05-11T00:57:44.931Z,18.4
2016-05-11T00:57:54.931Z,18.4
2016-05-11T00:58:04.899Z,18.4
2016-05-11T00:58:14.915Z,18.4
2016-05-11T00:58:24.899Z,18.4
2016-05-11T00:58:34.902Z,18.4
2016-05-11T00:58:44.902Z,18.4
2016-05-11T00:58:54.902Z,18.4
2016-05-11T00:59:04.887Z,18.4
2016-05-11T00:59:14.887Z,18.4
2016-05-11T00:59:24.871Z,18.4
2016-05-11T00:59:34.733Z,18.4
2016-05-11T00:59:44.717Z,18.4
2016-05-11T00:59:54.951Z,18.4
2016-05-11T01:00:05.404Z,18.4
2016-05-11T01:00:15.061Z,18.4
2016-05-11T01:00:25.095Z,18.4
2016-05-11T01:00:35.111Z,18.4
2016-05-11T01:00:44.845Z,18.4
2016-05-11T01:00:54.829Z,18.4
2016-05-11T01:01:04.829Z,18.4
2016-05-11T01:01:14.829Z,18.4
2016-05-11T01:01:24.829Z,18.4
2016-05-11T01:01:34.816Z,18.4
2016-05-11T01:01:44.816Z,18.4
2016-05-11T01:01:54.675Z,18.4
2016-05-11T01:02:04.816Z,18.4
2016-05-11T01:02:14.800Z,18.4
2016-05-11T01:02:24.800Z,18.4
2016-05-11T01:02:34.787Z,18.4
2016-05-11T01:02:44.787Z,18.4
2016-05-11T01:02:54.475Z,18.4
2016-05-11T01:03:04.772Z,18.4
2016-05-11T01:03:14.772Z,18.4
2016-05-11T01:03:24.772Z,18.4
2016-05-11T01:03:34.619Z,18.4
2016-05-11T01:03:44.775Z,18.4
2016-05-11T01:03:54.775Z,18.4
2016-05-11T01:04:04.759Z,18.4
2016-05-11T01:04:14.759Z,18.4
2016-05-11T01:04:24.759Z,18.4
2016-05-11T01:04:34.747Z,18.4
2016-05-11T01:04:44.747Z,18.4
2016-05-11T01:04:54.731Z,18.4
2016-05-11T01:05:04.731Z,18.4
2016-05-11T01:05:14.747Z,18.4
2016-05-11T01:05:24.731Z,18.4
2016-05-11T01:05:34.562Z,18.4
2016-05-11T01:05:44.734Z,18.4
2016-05-11T01:05:54.546Z,18.4
2016-05-11T01:06:04.718Z,18.4
2016-05-11T01:06:14.703Z,18.4
2016-05-11T01:06:24.546Z,18.4
2016-05-11T01:06:34.705Z,18.4
2016-05-11T01:06:44.689Z,18.4
2016-05-11T01:06:54.689Z,18.4
2016-05-11T01:07:04.689Z,18.4
2016-05-11T01:07:14.517Z,18.4
2016-05-11T01:07:24.673Z,18.4
2016-05-11T01:07:34.661Z,18.4
2016-05-11T01:07:44.676Z,18.4
2016-05-11T01:07:54.645Z,18.4
2016-05-11T01:08:04.661Z,18.4
2016-05-11T01:08:14.645Z,18.4
2016-05-11T01:08:24.630Z,18.4
2016-05-11T01:08:34.647Z,18.4
2016-05-11T01:08:44.632Z,18.4
2016-05-11T01:08:54.632Z,18.4
2016-05-11T01:09:04.632Z,18.4
2016-05-11T01:09:14.616Z,18.4
2016-05-11T01:09:24.616Z,18.4
2016-05-11T01:09:34.619Z,18.4
2016-05-11T01:09:44.619Z,18.4
2016-05-11T01:09:54.619Z,18.4
2016-05-11T01:10:04.447Z,18.4
2016-05-11T01:10:14.447Z,18.4
2016-05-11T01:10:24.588Z,18.4
2016-05-11T01:10:34.434Z,18.4
2016-05-11T01:10:44.606Z,18.4
2016-05-11T01:10:54.591Z,18.4
2016-05-11T01:11:04.559Z,18.4
2016-05-11T01:11:14.403Z,18.3
2016-05-11T01:11:24.575Z,18.3
2016-05-11T01:11:34.594Z,18.3
2016-05-11T01:11:44.562Z,18.4
2016-05-11T01:11:54.562Z,18.4
2016-05-11T01:12:04.406Z,18.3
2016-05-11T01:12:14.391Z,18.3
2016-05-11T01:12:24.547Z,18.3
2016-05-11T01:12:34.534Z,18.3
2016-05-11T01:12:44.534Z,18.3
2016-05-11T01:12:54.378Z,18.3
2016-05-11T01:13:04.362Z,18.3
2016-05-11T01:13:14.534Z,18.3
2016-05-11T01:13:24.519Z,18.3
2016-05-11T01:13:34.364Z,18.3
2016-05-11T01:13:44.505Z,18.3
2016-05-11T01:13:54.505Z,18.3
2016-05-11T01:14:04.349Z,18.3
2016-05-11T01:14:14.333Z,18.3
2016-05-11T01:14:24.505Z,18.3
2016-05-11T01:14:34.492Z,18.3
2016-05-11T01:14:44.492Z,18.3
2016-05-11T01:14:54.492Z,18.3
2016-05-11T01:15:04.336Z,18.3
2016-05-11T01:15:14.492Z,18.3
2016-05-11T01:15:24.758Z,18.3
2016-05-11T01:15:34.479Z,18.3
2016-05-11T01:15:44.447Z,18.3
2016-05-11T01:15:54.322Z,18.3
2016-05-11T01:16:04.447Z,18.3
2016-05-11T01:16:14.447Z,18.3
2016-05-11T01:16:24.447Z,18.3
2016-05-11T01:16:34.420Z,18.3
2016-05-11T01:16:44.436Z,18.3
2016-05-11T01:16:54.280Z,18.3
2016-05-11T01:17:04.420Z,18.3
2016-05-11T01:17:14.420Z,18.3
2016-05-11T01:17:24.420Z,18.3
2016-05-11T01:17:34.406Z,18.3
2016-05-11T01:17:44.265Z,18.3
2016-05-11T01:17:54.390Z,18.3
2016-05-11T01:18:04.390Z,18.3
2016-05-11T01:18:14.218Z,18.3
2016-05-11T01:18:24.234Z,18.3
2016-05-11T01:18:34.377Z,18.3
2016-05-11T01:18:44.377Z,18.3
2016-05-11T01:18:54.393Z,18.3
2016-05-11T01:19:04.393Z,18.3
2016-05-11T01:19:14.221Z,18.3
2016-05-11T01:19:24.362Z,18.3
2016-05-11T01:19:34.349Z,18.3
2016-05-11T01:19:44.365Z,18.3
2016-05-11T01:19:54.349Z,18.3
2016-05-11T01:20:04.193Z,18.3
2016-05-11T01:20:14.349Z,18.3
2016-05-11T01:20:24.333Z,18.3
2016-05-11T01:20:34.336Z,18.3
2016-05-11T01:20:44.180Z,18.3
2016-05-11T01:20:54.321Z,18.3
2016-05-11T01:21:04.321Z,18.3
2016-05-11T01:21:14.305Z,18.3
2016-05-11T01:21:24.321Z,18.3
2016-05-11T01:21:34.293Z,18.3
2016-05-11T01:21:44.152Z,18.3
2016-05-11T01:21:54.293Z,18.3
2016-05-11T01:22:04.293Z,18.3
2016-05-11T01:22:14.308Z,18.3
2016-05-11T01:22:24.277Z,18.3
2016-05-11T01:22:34.123Z,18.3
2016-05-11T01:22:44.279Z,18.3
2016-05-11T01:22:54.279Z,18.3
2016-05-11T01:23:04.279Z,18.3
2016-05-11T01:23:14.263Z,18.3
2016-05-11T01:23:24.295Z,18.3
2016-05-11T01:23:34.298Z,18.3
2016-05-11T01:23:44.251Z,18.3
2016-05-11T01:23:54.329Z,18.3
2016-05-11T01:24:04.235Z,18.3
2016-05-11T01:24:14.235Z,18.3
2016-05-11T01:24:24.235Z,18.3
2016-05-11T01:24:34.253Z,18.3
2016-05-11T01:24:44.237Z,18.3
2016-05-11T01:24:54.206Z,18.2
2016-05-11T01:25:04.206Z,18.3
2016-05-11T01:25:14.206Z,18.3
2016-05-11T01:25:24.050Z,18.3
2016-05-11T01:25:34.210Z,18.3
2016-05-11T01:25:44.038Z,18.3
2016-05-11T01:25:54.210Z,18.3
2016-05-11T01:26:04.194Z,18.3
2016-05-11T01:26:14.194Z,18.3
2016-05-11T01:26:24.194Z,18.2
2016-05-11T01:26:34.165Z,18.3
2016-05-11T01:26:44.009Z,18.2
2016-05-11T01:26:54.165Z,18.2
2016-05-11T01:27:03.993Z,18.2
2016-05-11T01:27:14.009Z,18.2
2016-05-11T01:27:24.165Z,18.2
2016-05-11T01:27:34.168Z,18.2
2016-05-11T01:27:43.996Z,18.2
2016-05-11T01:27:53.980Z,18.2
2016-05-11T01:28:04.137Z,18.2
2016-05-11T01:28:14.137Z,18.2
2016-05-11T01:28:23.980Z,18.2
2016-05-11T01:28:34.124Z,18.2
2016-05-11T01:28:44.124Z,18.2
2016-05-11T01:28:54.124Z,18.2
2016-05-11T01:29:03.952Z,18.2
2016-05-11T01:29:13.952Z,18.2
2016-05-11T01:29:23.937Z,18.2
2016-05-11T01:29:34.095Z,18.2
2016-05-11T01:29:44.095Z,18.2
2016-05-11T01:29:54.095Z,18.2
2016-05-11T01:30:04.079Z,18.2
2016-05-11T01:30:13.939Z,18.2
2016-05-11T01:30:23.782Z,18.2
2016-05-11T01:30:34.316Z,18.2
2016-05-11T01:30:44.628Z,18.2
2016-05-11T01:30:54.362Z,18.2
2016-05-11T01:31:03.909Z,18.2
2016-05-11T01:31:13.894Z,18.2
2016-05-11T01:31:24.066Z,18.2
2016-05-11T01:31:34.053Z,18.2
2016-05-11T01:31:43.881Z,18.2
2016-05-11T01:31:53.897Z,18.2
2016-05-11T01:32:04.037Z,18.2
2016-05-11T01:32:14.022Z,18.2
2016-05-11T01:32:24.022Z,18.2
2016-05-11T01:32:33.885Z,18.2
2016-05-11T01:32:44.026Z,18.2
2016-05-11T01:32:54.010Z,18.2
2016-05-11T01:33:04.057Z,18.2
2016-05-11T01:33:14.010Z,18.2
2016-05-11T01:33:23.994Z,18.2
2016-05-11T01:33:33.981Z,18.2
2016-05-11T01:33:43.996Z,18.2
2016-05-11T01:33:53.996Z,18.3
2016-05-11T01:34:03.668Z,18.2
2016-05-11T01:34:13.840Z,18.2
2016-05-11T01:34:23.981Z,18.2
2016-05-11T01:34:33.812Z,18.2
2016-05-11T01:34:43.953Z,18.2
2016-05-11T01:34:53.968Z,18.2
2016-05-11T01:35:03.640Z,18.2
2016-05-11T01:35:13.953Z,18.2
2016-05-11T01:35:23.953Z,18.2
2016-05-11T01:35:33.939Z,18.2
2016-05-11T01:35:43.955Z,18.2
2016-05-11T01:35:53.939Z,18.2
2016-05-11T01:36:03.939Z,18.2
2016-05-11T01:36:13.767Z,18.2
2016-05-11T01:36:23.939Z,18.2
2016-05-11T01:36:33.911Z,18.2
2016-05-11T01:36:43.770Z,18.2
2016-05-11T01:36:53.926Z,18.2
2016-05-11T01:37:03.911Z,18.2
2016-05-11T01:37:13.739Z,18.2
2016-05-11T01:37:23.739Z,18.2
2016-05-11T01:37:33.881Z,18.2
2016-05-11T01:37:43.913Z,18.2
2016-05-11T01:37:53.897Z,18.2
2016-05-11T01:38:03.881Z,18.2
2016-05-11T01:38:13.725Z,18.2
2016-05-11T01:38:23.913Z,18.2
2016-05-11T01:38:33.885Z,18.2
2016-05-11T01:38:43.854Z,18.2
2016-05-11T01:38:53.714Z,18.3
2016-05-11T01:39:03.698Z,18.2
2016-05-11T01:39:13.870Z,18.2
2016-05-11T01:39:23.682Z,18.2
2016-05-11T01:39:33.684Z,18.2
2016-05-11T01:39:43.700Z,18.2
2016-05-11T01:39:53.512Z,18.2
2016-05-11T01:40:03.825Z,18.2
2016-05-11T01:40:13.669Z,18.3
2016-05-11T01:40:23.809Z,18.2
2016-05-11T01:40:33.811Z,18.3
2016-05-11T01:40:43.655Z,18.2
2016-05-11T01:40:53.671Z,18.2
2016-05-11T01:41:03.655Z,18.2
2016-05-11T01:41:13.796Z,18.2
2016-05-11T01:41:23.796Z,18.2
2016-05-11T01:41:33.784Z,18.3
2016-05-11T01:41:43.628Z,18.2
2016-05-11T01:41:53.628Z,18.2
2016-05-11T01:42:03.628Z,18.3
2016-05-11T01:42:13.784Z,18.2
2016-05-11T01:42:23.800Z,18.3
2016-05-11T01:42:33.755Z,18.3
2016-05-11T01:42:43.770Z,18.2
2016-05-11T01:42:53.442Z,18.3
2016-05-11T01:43:03.739Z,18.3
2016-05-11T01:43:13.755Z,18.3
2016-05-11T01:43:23.583Z,18.2
2016-05-11T01:43:33.742Z,18.2
2016-05-11T01:43:43.742Z,18.3
2016-05-11T01:43:53.727Z,18.2
2016-05-11T01:44:03.727Z,18.2
2016-05-11T01:44:13.727Z,18.2
2016-05-11T01:44:23.711Z,18.3
2016-05-11T01:44:33.714Z,18.2
2016-05-11T01:44:43.558Z,18.3
2016-05-11T01:44:53.730Z,18.3
2016-05-11T01:45:03.698Z,18.3
2016-05-11T01:45:14.073Z,18.3
2016-05-11T01:45:24.261Z,18.2
2016-05-11T01:45:33.732Z,18.2
2016-05-11T01:45:44.185Z,18.3
2016-05-11T01:45:53.872Z,18.3
2016-05-11T01:46:03.685Z,18.2
2016-05-11T01:46:13.653Z,18.2
2016-05-11T01:46:23.513Z,18.2
2016-05-11T01:46:33.671Z,18.2
2016-05-11T01:46:43.655Z,18.3
2016-05-11T01:46:53.655Z,18.2
2016-05-11T01:47:03.655Z,18.2
2016-05-11T01:47:13.484Z,18.2
2016-05-11T01:47:23.484Z,18.3
2016-05-11T01:47:33.643Z,18.2
2016-05-11T01:47:43.658Z,18.2
2016-05-11T01:47:53.627Z,18.2
2016-05-11T01:48:03.627Z,18.2
2016-05-11T01:48:13.627Z,18.2
2016-05-11T01:48:23.455Z,18.2
2016-05-11T01:48:33.459Z,18.2
2016-05-11T01:48:43.459Z,18.2
2016-05-11T01:48:53.600Z,18.2
2016-05-11T01:49:03.600Z,18.2
2016-05-11T01:49:13.600Z,18.2
2016-05-11T01:49:23.616Z,18.2
2016-05-11T01:49:33.586Z,18.2
2016-05-11T01:49:43.586Z,18.2
2016-05-11T01:49:53.571Z,18.2
2016-05-11T01:50:03.571Z,18.2
2016-05-11T01:50:13.399Z,18.2
2016-05-11T01:50:23.414Z,18.2
2016-05-11T01:50:33.558Z,18.2
2016-05-11T01:50:43.402Z,18.2
2016-05-11T01:50:53.574Z,18.2
2016-05-11T01:51:03.542Z,18.2
2016-05-11T01:51:13.558Z,18.2
2016-05-11T01:51:23.371Z,18.2
2016-05-11T01:51:33.576Z,18.2
2016-05-11T01:51:43.529Z,18.2
2016-05-11T01:51:53.357Z,18.2
2016-05-11T01:52:03.513Z,18.2
2016-05-11T01:52:13.513Z,18.2
2016-05-11T01:52:23.498Z,18.2
2016-05-11T01:52:33.516Z,18.2
2016-05-11T01:52:43.501Z,18.2
2016-05-11T01:52:53.344Z,18.2
2016-05-11T01:53:03.501Z,18.2
2016-05-11T01:53:13.485Z,18.2
2016-05-11T01:53:23.344Z,18.2
2016-05-11T01:53:33.488Z,18.2
2016-05-11T01:53:43.347Z,18.2
2016-05-11T01:53:53.472Z,18.2
2016-05-11T01:54:03.004Z,18.2
2016-05-11T01:54:13.457Z,18.2
2016-05-11T01:54:23.441Z,18.2
2016-05-11T01:54:33.302Z,18.2
2016-05-11T01:54:43.443Z,18.2
2016-05-11T01:54:53.443Z,18.2
2016-05-11T01:55:03.443Z,18.2
2016-05-11T01:55:13.427Z,18.2
2016-05-11T01:55:23.271Z,18.2
2016-05-11T01:55:33.430Z,18.2
2016-05-11T01:55:43.430Z,18.3
2016-05-11T01:55:53.430Z,18.3
2016-05-11T01:56:03.446Z,18.3
2016-05-11T01:56:13.430Z,18.2
2016-05-11T01:56:23.415Z,18.3
2016-05-11T01:56:33.402Z,18.2
2016-05-11T01:56:43.387Z,18.2
2016-05-11T01:56:53.246Z,18.2
2016-05-11T01:57:03.387Z,18.2
2016-05-11T01:57:13.246Z,18.2
2016-05-11T01:57:23.371Z,18.2
2016-05-11T01:57:33.374Z,18.2
2016-05-11T01:57:43.374Z,18.2
2016-05-11T01:57:53.374Z,18.2
2016-05-11T01:58:03.358Z,18.2
2016-05-11T01:58:13.358Z,18.2
2016-05-11T01:58:23.202Z,18.2
2016-05-11T01:58:33.360Z,18.2
2016-05-11T01:58:43.345Z,18.2
2016-05-11T01:58:53.345Z,18.2
2016-05-11T01:59:03.329Z,18.2
2016-05-11T01:59:13.345Z,18.2
2016-05-11T01:59:23.329Z,18.2
2016-05-11T01:59:33.316Z,18.2
2016-05-11T01:59:43.332Z,18.2
2016-05-11T01:59:53.316Z,18.2
2016-05-11T02:00:03.332Z,18.2
2016-05-11T02:00:13.160Z,18.2
2016-05-11T02:00:23.301Z,18.2
2016-05-11T02:00:33.912Z,18.2
2016-05-11T02:00:43.537Z,18.2
2016-05-11T02:00:53.147Z,18.2
2016-05-11T02:01:03.131Z,18.2
2016-05-11T02:01:13.287Z,18.2
2016-05-11T02:01:23.287Z,18.2
2016-05-11T02:01:33.290Z,18.2
2016-05-11T02:01:43.275Z,18.2
2016-05-11T02:01:53.259Z,18.2
2016-05-11T02:02:03.103Z,18.2
2016-05-11T02:02:13.243Z,18.2
2016-05-11T02:02:23.243Z,18.2
2016-05-11T02:02:33.245Z,18.2
2016-05-11T02:02:43.245Z,18.2
2016-05-11T02:02:53.245Z,18.2
2016-05-11T02:03:03.120Z,18.2
2016-05-11T02:03:13.230Z,18.2
2016-05-11T02:03:23.230Z,18.2
2016-05-11T02:03:33.218Z,18.2
2016-05-11T02:03:43.234Z,18.2
2016-05-11T02:03:53.234Z,18.2
2016-05-11T02:04:03.202Z,18.2
2016-05-11T02:04:13.202Z,18.2
2016-05-11T02:04:23.202Z,18.2
2016-05-11T02:04:33.190Z,18.2
2016-05-11T02:04:43.190Z,18.2
2016-05-11T02:04:53.034Z,18.2
2016-05-11T02:05:03.034Z,18.2
2016-05-11T02:05:13.190Z,18.2
2016-05-11T02:05:23.174Z,18.2
2016-05-11T02:05:33.161Z,18.2
2016-05-11T02:05:43.020Z,18.2
2016-05-11T02:05:53.161Z,18.2
2016-05-11T02:06:03.161Z,18.2
2016-05-11T02:06:13.192Z,18.2
2016-05-11T02:06:23.161Z,18.2
2016-05-11T02:06:33.147Z,18.2
2016-05-11T02:06:43.131Z,18.2
2016-05-11T02:06:52.975Z,18.2
2016-05-11T02:07:02.819Z,18.2
2016-05-11T02:07:13.131Z,18.2
2016-05-11T02:07:23.116Z,18.2
2016-05-11T02:07:32.962Z,18.2
2016-05-11T02:07:43.119Z,18.2
2016-05-11T02:07:52.962Z,18.2
2016-05-11T02:08:02.947Z,18.2
2016-05-11T02:08:12.947Z,18.2
2016-05-11T02:08:22.962Z,18.2
2016-05-11T02:08:33.106Z,18.2
2016-05-11T02:08:43.075Z,18.2
2016-05-11T02:08:52.934Z,18.2
2016-05-11T02:09:03.075Z,18.2
2016-05-11T02:09:12.919Z,18.2
2016-05-11T02:09:22.903Z,18.2
2016-05-11T02:09:33.061Z,18.2
2016-05-11T02:09:42.905Z,18.2
2016-05-11T02:09:52.889Z,18.2
2016-05-11T02:10:02.749Z,18.2
2016-05-11T02:10:13.046Z,18.2
2016-05-11T02:10:23.046Z,18.2
2016-05-11T02:10:32.892Z,18.2
2016-05-11T02:10:43.033Z,18.2
2016-05-11T02:10:53.049Z,18.2
2016-05-11T02:11:03.033Z,18.2
2016-05-11T02:11:12.861Z,18.2
2016-05-11T02:11:23.017Z,18.2
2016-05-11T02:11:33.020Z,18.2
2016-05-11T02:11:43.005Z,18.2
2016-05-11T02:11:53.005Z,18.2
2016-05-11T02:12:02.833Z,18.2
2016-05-11T02:12:12.880Z,18.2
2016-05-11T02:12:23.036Z,18.2
2016-05-11T02:12:32.992Z,18.2
2016-05-11T02:12:42.992Z,18.2
2016-05-11T02:12:52.992Z,18.2
2016-05-11T02:13:02.820Z,18.2